Time;durP1;ratioP1;P1;durP2;ratioP2;P2;SDS_P1;SDS_P2;PMS_P1;PMS_P2;Temp;Humidity;BMP_temperature;BMP_pressure;BME280_temperature;BME280_humidity;BME280_pressure;Samples;Min_cycle;Max_cycle;Signal;HPM_P1;HPM_P2
2021/01/25 00:00:58;;;;;;;14.30;6.97;;;0.50;99.90;;;1.25;83.52;98948.19;5054620;28;20033;-78
2021/01/25 00:03:25;;;;;;;12.65;6.38;;;0.50;99.90;;;1.30;82.65;98950.72;5037388;28;20028;-79
2021/01/25 00:05:51;;;;;;;11.88;6.57;;;0.50;99.90;;;1.28;82.25;98947.50;5053681;28;20036;-76
2021/01/25 00:08:17;;;;;;;16.50;6.80;;;0.50;99.90;;;1.33;82.05;98941.78;5053676;28;20500;-78
2021/01/25 00:10:43;;;;;;;12.45;7.00;;;0.50;99.90;;;1.32;82.05;98950.38;5053268;28;20404;-78
2021/01/25 00:13:10;;;;;;;11.68;6.93;;;0.50;99.90;;;1.28;82.35;98947.50;5054470;28;20039;-78
2021/01/25 00:15:37;;;;;;;11.70;6.60;;;0.50;99.90;;;1.18;82.49;98942.44;5053821;28;20032;-79
2021/01/25 00:18:03;;;;;;;10.35;6.40;;;0.40;99.90;;;1.15;82.71;98948.59;5052946;28;20040;-79
2021/01/25 00:20:29;;;;;;;12.55;6.50;;;0.40;99.90;;;1.18;82.21;98942.44;5054011;28;20025;-78
2021/01/25 00:22:55;;;;;;;12.18;6.93;;;0.30;99.90;;;1.13;82.38;98944.56;5054059;28;20059;-79
2021/01/25 00:25:21;;;;;;;15.00;7.13;;;0.30;99.90;;;1.08;82.81;98945.59;5056823;28;20075;-78
2021/01/25 00:27:47;;;;;;;13.20;7.47;;;0.20;99.90;;;0.97;83.22;98942.44;5058189;28;20039;-79
2021/01/25 00:30:18;;;;;;;11.23;6.97;;;0.20;99.90;;;1.02;82.91;98953.25;5056925;28;20087;-78
2021/01/25 00:32:46;;;;;;;13.95;6.75;;;0.20;99.90;;;0.95;83.21;98941.16;5056567;28;20032;-78
2021/01/25 00:35:13;;;;;;;11.65;6.60;;;0.10;99.90;;;0.92;83.21;98945.41;5101984;22;20048;-79
2021/01/25 00:37:39;;;;;;;16.65;7.55;;;0.10;99.90;;;0.88;83.36;98944.44;5057114;28;20060;-78
2021/01/25 00:40:08;;;;;;;13.57;7.22;;;0.10;99.90;;;0.89;83.58;98948.00;5039372;28;20055;-80
2021/01/25 00:42:35;;;;;;;11.90;6.47;;;0.00;99.90;;;0.92;83.53;98944.59;5039965;28;20033;-79
2021/01/25 00:45:05;;;;;;;9.63;5.88;;;0.00;99.90;;;0.97;82.89;98945.19;5035398;28;20029;-80
2021/01/25 00:47:32;;;;;;;11.50;6.72;;;0.10;99.90;;;0.98;82.82;98935.00;5006650;28;20037;-79
2021/01/25 00:49:58;;;;;;;14.15;6.63;;;0.10;99.90;;;0.99;82.87;98939.38;5044824;28;20025;-78
2021/01/25 00:52:25;;;;;;;14.75;6.32;;;0.10;99.90;;;0.95;83.00;98938.41;5041777;28;20025;-78
2021/01/25 00:54:51;;;;;;;11.13;6.18;;;0.10;99.90;;;0.89;83.08;98937.00;5040241;28;20413;-79
2021/01/25 00:57:17;;;;;;;11.68;6.85;;;0.00;99.90;;;0.90;83.02;98935.88;5021749;28;20038;-78
2021/01/25 00:59:44;;;;;;;12.40;7.32;;;0.00;99.90;;;0.80;83.40;98928.03;5020537;28;20033;-79
2021/01/25 01:02:11;;;;;;;12.82;6.65;;;0.00;99.90;;;0.76;83.73;98938.09;5026346;28;20033;-78
2021/01/25 01:04:37;;;;;;;13.32;7.60;;;-0.10;99.90;;;0.76;83.66;98938.09;5040385;28;20033;-78
2021/01/25 01:07:04;;;;;;;13.45;7.30;;;-0.10;99.90;;;0.69;84.20;98930.38;5033222;28;20048;-79
2021/01/25 01:09:31;;;;;;;13.25;6.53;;;-0.10;99.90;;;0.71;84.09;98933.59;5024825;28;20033;-79
2021/01/25 01:11:57;;;;;;;12.85;6.40;;;-0.20;99.90;;;0.69;84.53;98929.56;5022384;28;20041;-80
2021/01/25 01:14:24;;;;;;;13.70;7.65;;;-0.20;99.90;;;0.67;84.43;98927.16;5039023;28;20033;-79
2021/01/25 01:16:51;;;;;;;14.18;6.90;;;-0.20;99.90;;;0.71;84.53;98932.78;5020208;28;20033;-79
2021/01/25 01:19:17;;;;;;;12.70;6.00;;;-0.10;99.90;;;0.78;84.35;98922.06;5018636;28;20037;-78
2021/01/25 01:21:43;;;;;;;13.05;6.60;;;-0.10;99.90;;;0.79;83.93;98923.69;5018407;28;20089;-79
2021/01/25 01:24:13;;;;;;;13.88;6.70;;;-0.10;99.90;;;0.78;84.44;98922.06;5018452;28;20037;-79
2021/01/25 01:26:39;;;;;;;13.13;7.35;;;-0.10;99.90;;;0.73;84.39;98925.03;5035855;28;20049;-78
2021/01/25 01:29:04;;;;;;;12.73;7.78;;;-0.10;99.90;;;0.73;84.70;98923.06;5018644;28;20370;-78
2021/01/25 01:31:30;;;;;;;10.27;7.35;;;-0.10;99.90;;;0.74;84.64;98930.16;5018211;28;20123;-78
2021/01/25 01:33:56;;;;;;;11.63;7.38;;;-0.10;99.90;;;0.84;84.70;98923.47;5018103;28;20056;-79
2021/01/25 01:36:22;;;;;;;14.32;7.45;;;-0.10;99.90;;;0.90;84.60;98933.13;5017561;28;20063;-79
2021/01/25 01:38:48;;;;;;;13.60;7.30;;;0.00;99.90;;;0.93;84.80;98927.75;5018967;28;20043;-78
2021/01/25 01:41:13;;;;;;;15.02;7.28;;;0.00;99.90;;;1.01;84.56;98923.31;5019600;28;20034;-78
2021/01/25 01:43:39;;;;;;;12.35;7.30;;;0.10;99.90;;;1.05;84.19;98918.78;5018539;28;20065;-78
2021/01/25 01:46:05;;;;;;;12.90;7.47;;;0.20;99.90;;;1.11;84.18;98925.66;5036485;28;20052;-78
2021/01/25 01:48:31;;;;;;;14.15;7.32;;;0.20;99.90;;;1.26;83.38;98925.03;5018759;28;20432;-78
2021/01/25 01:50:58;;;;;;;12.90;7.35;;;0.30;99.90;;;1.27;83.14;98921.16;5036539;28;20034;-78
2021/01/25 01:53:24;;;;;;;12.85;6.38;;;0.30;99.90;;;1.35;82.78;98931.25;5035951;28;20069;-81
2021/01/25 01:55:50;;;;;;;9.20;6.60;;;0.40;99.90;;;1.35;82.79;98927.72;5018639;28;20033;-78
2021/01/25 01:58:19;;;;;;;10.95;6.15;;;0.40;99.90;;;1.35;83.05;98924.97;5035628;28;20474;-79
2021/01/25 02:00:45;;;;;;;10.77;6.53;;;0.40;99.90;;;1.32;82.77;98928.38;5017818;28;20029;-79
2021/01/25 02:03:10;;;;;;;11.93;6.95;;;0.40;99.90;;;1.39;82.41;98939.63;5018236;28;20175;-78
2021/01/25 02:05:39;;;;;;;13.88;7.15;;;0.50;99.90;;;1.41;82.28;98931.84;5035745;28;20071;-78
2021/01/25 02:08:06;;;;;;;11.27;6.63;;;0.50;99.90;;;1.40;82.30;98933.78;5017996;28;20033;-78
2021/01/25 02:10:32;;;;;;;9.82;6.00;;;0.50;99.90;;;1.41;82.30;98931.84;5036020;28;20462;-78
2021/01/25 02:13:01;;;;;;;11.60;7.35;;;0.50;99.90;;;1.38;81.84;98936.06;5035772;28;20036;-78
2021/01/25 02:15:30;;;;;;;15.07;6.78;;;0.40;99.90;;;1.33;82.18;98939.03;5021398;28;20035;-78
2021/01/25 02:17:57;;;;;;;12.50;6.90;;;0.40;99.90;;;1.30;82.36;98927.91;5034977;28;20113;-78
2021/01/25 02:20:44;;;;;;;13.30;6.93;;;0.40;99.90;;;1.27;82.74;98940.41;5017858;28;20037;-78
2021/01/25 02:24:12;;;;;;;11.55;6.93;;;0.40;99.90;;;1.26;82.91;98933.28;5018275;28;20033;-79
2021/01/25 02:27:35;;;;;;;10.18;6.65;;;0.30;99.90;;;1.22;82.91;98945.31;5035791;28;20497;-78
2021/01/25 02:30:06;;;;;;;14.30;7.13;;;0.30;99.90;;;1.15;83.32;98943.09;5017798;28;20044;-77
2021/01/25 02:32:34;;;;;;;13.75;7.40;;;0.20;99.90;;;1.13;83.44;98944.56;5017346;28;20043;-77
2021/01/25 02:35:07;;;;;;;11.27;6.90;;;0.20;99.90;;;1.12;83.60;98954.78;5034003;28;20025;-79
2021/01/25 02:37:35;;;;;;;11.88;6.47;;;0.10;99.90;;;1.10;83.98;98948.78;5035124;28;20036;-78
2021/01/25 02:40:05;;;;;;;14.40;7.25;;;0.20;99.90;;;1.07;84.16;98949.47;5017924;28;20091;-77
2021/01/25 02:42:33;;;;;;;11.88;7.57;;;0.10;99.90;;;1.04;84.29;98958.38;5017292;28;20026;-78
2021/01/25 02:45:02;;;;;;;12.32;6.95;;;0.10;99.90;;;1.04;84.54;98956.44;5034592;28;20442;-77
2021/01/25 02:47:31;;;;;;;13.35;7.25;;;0.10;99.90;;;1.00;85.00;98955.50;5016871;28;20485;-77
2021/01/25 02:49:57;;;;;;;10.27;6.63;;;0.10;99.90;;;0.98;85.00;98948.75;5017845;28;20040;-77
2021/01/25 02:52:23;;;;;;;11.07;7.13;;;0.10;99.90;;;1.00;85.17;98944.50;5035328;28;20022;-79
2021/01/25 02:54:50;;;;;;;13.82;7.13;;;0.00;99.90;;;1.01;85.14;98950.81;5017583;28;20040;-79
2021/01/25 02:57:19;;;;;;;15.02;8.57;;;0.10;99.90;;;1.02;84.79;98955.19;5017053;28;20032;-79
2021/01/25 02:59:50;;;;;;;15.93;7.05;;;0.20;99.90;;;1.08;84.58;98955.78;5018468;28;20555;-77
2021/01/25 03:02:17;;;;;;;11.80;7.20;;;0.10;99.90;;;1.05;84.56;98955.31;5017492;28;20449;-78
2021/01/25 03:04:44;;;;;;;13.27;6.95;;;0.10;99.90;;;0.97;85.03;98950.69;5017208;28;20507;-78
2021/01/25 03:07:12;;;;;;;15.57;7.35;;;0.10;99.90;;;0.96;84.88;98951.81;5017478;28;20029;-79
2021/01/25 03:09:39;;;;;;;13.05;7.38;;;0.10;99.90;;;0.96;84.73;98959.28;5017221;28;20025;-77
2021/01/25 03:12:07;;;;;;;17.98;8.98;;;0.10;99.90;;;1.00;84.86;98946.44;5017440;28;20021;-80
2021/01/25 03:14:33;;;;;;;15.18;7.55;;;0.10;99.90;;;1.04;84.61;98955.63;5016806;28;20033;-79
2021/01/25 03:16:59;;;;;;;13.30;6.82;;;0.20;99.90;;;1.08;83.84;98953.03;5017983;28;20029;-78
2021/01/25 03:19:26;;;;;;;10.45;6.00;;;0.20;99.90;;;1.10;83.89;98965.28;5033828;28;20076;-80
2021/01/25 03:21:54;;;;;;;10.57;5.95;;;0.20;99.90;;;1.05;84.09;98965.50;5017816;28;20091;-79
2021/01/25 03:24:21;;;;;;;11.60;6.45;;;0.20;99.90;;;1.06;83.69;98964.34;5023049;28;20051;-79
2021/01/25 03:26:48;;;;;;;10.30;6.32;;;0.20;99.90;;;1.02;84.15;98958.75;5036099;28;20036;-79
2021/01/25 03:29:15;;;;;;;10.82;6.97;;;0.10;99.90;;;0.98;84.45;98960.53;5045294;28;20418;-79
2021/01/25 03:31:42;;;;;;;14.40;7.90;;;0.10;99.90;;;0.93;84.55;98973.69;5028070;28;20029;-78
2021/01/25 03:34:08;;;;;;;15.02;7.10;;;0.10;99.90;;;0.95;84.97;98974.16;5045617;28;20042;-78
2021/01/25 03:36:38;;;;;;;13.73;7.53;;;0.10;99.90;;;0.94;85.24;98973.34;5016557;28;20040;-80
2021/01/25 03:39:06;;;;;;;13.05;7.72;;;0.00;99.90;;;0.88;85.66;98976.63;5016293;28;20060;-78
2021/01/25 03:41:33;;;;;;;20.15;8.60;;;0.00;99.90;;;0.92;85.46;98980.31;5015452;28;20505;-80
2021/01/25 03:44:02;;;;;;;18.80;8.27;;;0.00;99.90;;;0.92;85.75;98983.88;5015556;28;20038;-77
2021/01/25 03:46:27;;;;;;;16.05;8.60;;;0.00;99.90;;;0.91;85.76;98982.25;5033788;28;20044;-77
2021/01/25 03:48:53;;;;;;;13.75;7.88;;;0.10;99.90;;;0.85;86.07;98983.59;5016458;28;20057;-78
2021/01/25 03:51:20;;;;;;;15.02;7.57;;;0.00;99.90;;;0.82;86.36;98978.78;5033837;28;20040;-76
2021/01/25 03:53:48;;;;;;;12.35;7.43;;;0.00;99.90;;;0.82;86.49;98980.72;5033829;28;20063;-78
2021/01/25 03:56:15;;;;;;;12.98;6.40;;;0.00;99.90;;;0.86;86.10;98987.16;5034088;28;20477;-78
2021/01/25 03:58:43;;;;;;;15.70;7.32;;;0.10;99.90;;;0.93;86.43;98984.69;5033714;28;20083;-79
2021/01/25 04:01:09;;;;;;;13.93;7.57;;;0.10;99.90;;;0.98;86.22;98989.97;5019505;28;20505;-77
2021/01/25 04:03:35;;;;;;;13.82;7.72;;;0.20;99.90;;;1.05;85.82;98982.81;5019672;28;20421;-77
2021/01/25 04:06:01;;;;;;;13.05;7.68;;;0.30;99.90;;;1.11;85.67;98994.41;5037783;28;20037;-78
2021/01/25 04:08:28;;;;;;;12.15;7.38;;;0.30;99.90;;;1.15;85.94;98991.78;5037590;28;20121;-77
2021/01/25 04:10:54;;;;;;;10.82;6.97;;;0.30;99.90;;;1.14;86.10;98990.16;5037205;28;20564;-77
2021/01/25 04:13:19;;;;;;;15.27;7.18;;;0.40;99.90;;;1.18;86.41;98980.91;5037552;28;20061;-77
2021/01/25 04:15:45;;;;;;;13.35;7.38;;;0.40;99.90;;;1.15;87.09;98991.78;5019387;28;20466;-77
2021/01/25 04:18:11;;;;;;;15.75;7.28;;;0.50;99.90;;;1.22;86.37;98992.06;5019723;28;20543;-78
2021/01/25 04:20:37;;;;;;;14.75;7.10;;;0.50;99.90;;;1.34;86.88;99000.34;5037388;28;20393;-78
2021/01/25 04:23:03;;;;;;;16.38;7.78;;;0.60;99.90;;;1.22;88.24;98992.84;5019097;28;20044;-77
2021/01/25 04:25:28;;;;;;;13.25;7.47;;;0.60;99.90;;;1.23;88.56;99005.44;5019323;28;20124;-76
2021/01/25 04:27:54;;;;;;;13.77;7.57;;;0.60;99.90;;;1.32;88.45;99002.63;5019588;28;20033;-79
2021/01/25 04:30:20;;;;;;;14.50;7.20;;;0.60;99.90;;;1.39;88.17;99011.94;5037984;28;20041;-78
2021/01/25 04:32:47;;;;;;;14.50;6.93;;;0.60;99.90;;;1.37;88.65;99008.75;5038389;28;20029;-77
2021/01/25 04:35:16;;;;;;;14.15;8.10;;;0.60;99.90;;;1.37;89.68;99016.19;5019915;28;20034;-76
2021/01/25 04:37:43;;;;;;;18.77;7.95;;;0.60;99.90;;;1.38;89.93;99009.56;5019990;28;20029;-79
2021/01/25 04:40:11;;;;;;;11.98;7.47;;;0.60;99.90;;;1.36;90.28;99015.38;5019608;28;20025;-80
2021/01/25 04:42:40;;;;;;;13.15;7.30;;;0.60;99.90;;;1.38;90.52;99006.81;5037169;28;20143;-77
2021/01/25 04:45:11;;;;;;;12.35;8.23;;;0.60;99.90;;;1.37;90.65;99008.75;5018973;28;20040;-77
2021/01/25 04:47:42;;;;;;;16.90;8.85;;;0.60;99.90;;;1.36;91.09;99009.06;5035930;28;20128;-78
2021/01/25 04:50:09;;;;;;;13.35;8.27;;;0.60;99.90;;;1.28;91.99;99010.75;5037303;28;20061;-78
2021/01/25 04:52:35;;;;;;;14.27;8.63;;;0.60;99.90;;;1.35;91.68;99011.00;5019120;28;20033;-78
2021/01/25 04:55:04;;;;;;;14.93;8.02;;;0.60;99.90;;;1.38;91.76;99004.81;5037173;28;20029;-80
2021/01/25 04:57:31;;;;;;;15.45;8.23;;;0.60;99.90;;;1.32;91.87;99005.38;5037123;28;20026;-78
2021/01/25 04:59:58;;;;;;;15.25;8.40;;;0.60;99.90;;;1.35;91.81;99002.75;5036473;28;20036;-78
2021/01/25 05:02:26;;;;;;;16.52;9.38;;;0.60;99.90;;;1.33;91.93;99015.25;5018012;28;20033;-77
2021/01/25 05:04:52;;;;;;;16.48;8.35;;;0.60;99.90;;;1.38;91.89;99013.09;5036746;28;20033;-79
2021/01/25 05:07:18;;;;;;;14.68;9.20;;;0.60;99.90;;;1.35;91.84;99011.00;5035695;28;20393;-77
2021/01/25 05:09:44;;;;;;;16.83;8.48;;;0.60;99.90;;;1.39;91.33;99016.63;5017740;28;20493;-78
2021/01/25 05:12:10;;;;;;;18.65;9.38;;;0.60;99.90;;;1.43;91.09;99012.09;5035773;28;20145;-80
2021/01/25 05:14:44;;;;;;;16.88;9.18;;;0.60;99.90;;;1.49;90.85;99021.72;5035912;28;20025;-80
2021/01/25 05:17:15;;;;;;;17.25;8.65;;;0.60;99.90;;;1.48;90.66;99020.94;5036116;28;20030;-79
2021/01/25 05:19:47;;;;;;;13.05;8.90;;;0.60;99.90;;;1.48;90.58;99031.13;5018009;28;20033;-80
2021/01/25 05:22:20;;;;;;;17.25;9.10;;;0.60;99.90;;;1.45;90.47;99029.03;5036045;28;20398;-80
2021/01/25 05:24:51;;;;;;;16.95;9.90;;;0.50;99.90;;;1.34;90.48;99033.38;5036418;28;20045;-78
2021/01/25 05:27:29;;;;;;;16.95;11.38;;;0.50;99.90;;;1.25;90.30;99036.19;5036418;28;20105;-79
2021/01/25 05:30:07;;;;;;;22.25;11.10;;;0.30;99.90;;;1.09;90.50;99043.44;5035068;28;20445;-78
2021/01/25 05:32:44;;;;;;;20.52;11.73;;;0.30;99.90;;;1.01;90.53;99042.34;5018798;28;20029;-78
2021/01/25 05:35:10;;;;;;;17.85;11.07;;;0.10;99.90;;;0.91;91.05;99045.47;5036985;28;20087;-81
2021/01/25 05:37:36;;;;;;;21.50;12.10;;;0.10;99.90;;;0.87;91.46;99046.47;5017371;28;20100;-79
2021/01/25 05:40:04;;;;;;;22.70;12.45;;;0.00;99.90;;;0.84;91.50;99056.19;5017152;28;20029;-79
2021/01/25 05:42:34;;;;;;;20.02;11.63;;;0.00;99.90;;;0.83;91.55;99057.34;5017372;28;20091;-79
2021/01/25 05:45:10;;;;;;;21.35;12.00;;;0.00;99.90;;;0.86;91.81;99061.38;5034634;28;20037;-79
2021/01/25 05:47:54;;;;;;;;;;;0.00;99.90;;;0.80;92.14;99060.75;5036580;28;20033;-80
2021/01/25 05:50:38;;;;;;;18.33;11.85;;;0.00;99.90;;;0.80;92.13;99055.25;5048067;28;19909;-79
2021/01/25 05:53:11;;;;;;;20.73;12.32;;;0.00;99.90;;;0.80;92.11;99059.94;5035237;28;20030;-78
2021/01/25 05:55:39;;;;;;;20.88;11.93;;;0.00;99.90;;;0.84;91.93;99066.38;5034941;28;20045;-80
2021/01/25 05:58:06;;;;;;;23.55;12.63;;;0.00;99.90;;;0.80;91.94;99065.44;5035060;28;20030;-80
2021/01/25 06:00:34;;;;;;;21.58;12.00;;;0.00;99.90;;;0.84;91.81;99064.44;5034996;28;20029;-78
2021/01/25 06:03:03;;;;;;;21.45;11.75;;;0.00;99.90;;;0.82;91.89;99068.66;5017017;28;20032;-78
2021/01/25 06:05:34;;;;;;;21.65;12.60;;;0.00;99.90;;;0.81;92.03;99078.03;5033286;28;20032;-78
2021/01/25 06:08:34;;;;;;;24.58;12.65;;;0.00;99.90;;;0.78;91.89;99081.44;5034988;28;20029;-79
2021/01/25 06:11:18;;;;;;;19.55;11.43;;;-0.10;99.90;;;0.78;92.13;99078.69;5034775;28;20036;-78
2021/01/25 06:14:34;;;;;;;28.13;13.48;;;-0.10;99.90;;;0.80;92.23;99084.69;5016766;28;20037;-78
2021/01/25 06:16:59;;;;;;;22.48;12.10;;;-0.10;99.90;;;0.75;92.23;99080.16;5038313;28;20024;-78
2021/01/25 06:19:31;;;;;;;25.25;13.45;;;-0.10;99.90;;;0.70;92.22;99077.63;5036511;28;20022;-81
2021/01/25 06:21:58;;;;;;;20.70;12.40;;;-0.10;99.90;;;0.68;92.17;99079.06;5032574;28;20037;-80
2021/01/25 06:24:29;;;;;;;26.30;13.38;;;-0.10;99.90;;;0.71;92.03;99078.41;5034047;28;20029;-78
2021/01/25 06:26:59;;;;;;;23.30;13.32;;;-0.10;99.90;;;0.72;92.15;99080.00;5034687;28;20061;-79
2021/01/25 06:29:26;;;;;;;22.58;12.45;;;-0.20;99.90;;;0.75;91.78;99082.09;5034504;28;20056;-79
2021/01/25 06:31:59;;;;;;;22.02;12.85;;;-0.20;99.90;;;0.72;91.86;99083.56;5016478;28;20045;-77
2021/01/25 06:34:27;;;;;;;23.02;13.18;;;-0.10;99.90;;;0.72;91.97;99091.81;5034258;28;20021;-80
2021/01/25 06:36:54;;;;;;;23.00;14.07;;;-0.10;99.90;;;0.71;91.89;99095.69;5015823;28;20025;-79
2021/01/25 06:39:26;;;;;;;25.83;13.50;;;-0.10;99.90;;;0.70;91.66;99099.59;5032910;28;20477;-79
2021/01/25 06:42:05;;;;;;;31.60;15.05;;;-0.10;99.90;;;0.69;91.99;99102.66;5034114;28;20033;-79
2021/01/25 06:44:34;;;;;;;24.77;13.82;;;-0.20;99.90;;;0.67;91.97;99104.94;5034191;28;20029;-79
2021/01/25 06:47:04;;;;;;;22.55;14.15;;;-0.20;99.90;;;0.68;91.84;99114.78;5032560;28;20030;-78
2021/01/25 06:49:32;;;;;;;26.67;14.75;;;-0.20;99.90;;;0.59;92.05;99109.31;5034104;28;20170;-79
2021/01/25 06:51:59;;;;;;;25.98;14.38;;;-0.20;99.90;;;0.55;92.23;99124.84;5032187;28;20477;-80
2021/01/25 06:54:26;;;;;;;22.33;13.57;;;-0.20;99.90;;;0.59;91.88;99130.50;5016236;28;20021;-78
2021/01/25 06:57:04;;;;;;;27.10;14.88;;;-0.20;99.90;;;0.58;92.08;99134.41;5033702;28;20029;-77
2021/01/25 06:59:30;;;;;;;26.85;13.68;;;-0.20;99.90;;;0.53;91.91;99138.13;5032890;28;20017;-79
2021/01/25 07:01:57;;;;;;;24.27;14.00;;;-0.30;99.90;;;0.48;91.99;99150.06;5034203;28;20029;-79
2021/01/25 07:04:32;;;;;;;25.30;13.70;;;-0.30;99.90;;;0.49;91.52;99150.88;5038517;28;20067;-81
2021/01/25 07:06:59;;;;;;;24.90;13.27;;;-0.30;99.90;;;0.45;91.38;99160.94;5025433;28;20068;-79
2021/01/25 07:09:29;;;;;;;23.10;13.25;;;-0.30;99.90;;;0.50;91.47;99158.00;5017367;28;20036;-79
2021/01/25 07:12:02;;;;;;;23.08;13.82;;;-0.40;99.90;;;0.49;91.16;99159.94;5033995;28;20071;-80
2021/01/25 07:14:33;;;;;;;21.48;13.05;;;-0.40;99.90;;;0.49;91.13;99161.88;5052092;28;20025;-79
2021/01/25 07:17:00;;;;;;;25.75;13.02;;;-0.40;99.90;;;0.51;90.65;99165.91;5052820;28;20024;-79
2021/01/25 07:19:27;;;;;;;27.83;13.80;;;-0.40;99.90;;;0.51;90.64;99170.63;5035164;28;20025;-79
2021/01/25 07:21:55;;;;;;;24.38;13.77;;;-0.40;99.90;;;0.47;90.56;99173.22;5035369;28;20021;-79
2021/01/25 07:24:25;;;;;;;23.80;12.95;;;-0.30;99.90;;;0.53;90.55;99179.31;5053347;28;20028;-81
2021/01/25 07:26:54;;;;;;;25.77;14.10;;;-0.30;99.90;;;0.53;90.49;99187.56;5034969;28;20043;-81
2021/01/25 07:29:22;;;;;;;23.23;12.80;;;-0.30;99.90;;;0.47;90.73;99189.69;5052080;28;20056;-79
2021/01/25 07:31:51;;;;;;;21.20;13.32;;;-0.40;99.90;;;0.51;90.52;99189.84;5053797;28;20095;-79
2021/01/25 07:34:18;;;;;;;21.48;11.63;;;-0.40;99.90;;;0.46;90.40;99199.06;5049905;28;20060;-80
2021/01/25 07:36:44;;;;;;;25.20;13.88;;;-0.40;99.90;;;0.46;90.91;99201.81;5035261;28;20028;-80
2021/01/25 07:39:15;;;;;;;26.95;15.50;;;-0.40;99.90;;;0.53;90.72;99199.38;5053533;28;20051;-80
2021/01/25 07:41:43;;;;;;;26.08;14.00;;;-0.40;99.90;;;0.54;90.58;99202.94;5053307;28;20489;-79
2021/01/25 07:44:12;;;;;;;29.00;15.77;;;-0.30;99.90;;;0.61;90.72;99216.94;5035301;28;20087;-79
2021/01/25 07:46:43;;;;;;;28.23;15.05;;;-0.30;99.90;;;0.67;91.02;99212.91;5052799;28;20548;-80
2021/01/25 07:49:09;;;;;;;28.60;14.93;;;-0.20;99.90;;;0.76;90.67;99215.63;5053005;28;20033;-80
2021/01/25 07:51:37;;;;;;;26.25;14.00;;;-0.10;99.90;;;0.83;90.74;99221.44;5052845;28;20029;-80
2021/01/25 07:54:05;;;;;;;26.60;13.60;;;-0.10;99.90;;;0.90;90.50;99230.75;5031889;28;20026;-80
2021/01/25 07:56:32;;;;;;;23.05;13.93;;;0.00;99.90;;;0.97;90.53;99233.81;5052757;28;20039;-80
2021/01/25 07:59:16;;;;;;;33.03;15.85;;;0.00;99.90;;;1.03;90.17;99239.94;5053196;28;20104;-80
2021/01/25 08:01:56;;;;;;;26.40;15.55;;;0.10;99.90;;;1.11;90.20;99247.34;5052926;28;20118;-79
2021/01/25 08:04:36;;;;;;;27.10;14.93;;;0.10;99.90;;;1.18;90.13;99247.66;5053116;28;20036;-80
2021/01/25 08:07:02;;;;;;;29.05;14.88;;;0.30;99.90;;;1.26;89.89;99251.50;5034714;28;20101;-83
2021/01/25 08:09:37;;;;;;;23.98;14.02;;;0.30;99.90;;;1.31;89.61;99257.63;5055020;28;20029;-81
2021/01/25 08:12:05;;;;;;;23.70;14.88;;;0.40;99.90;;;1.33;89.06;99262.78;5052092;28;20095;-80
2021/01/25 08:14:44;;;;;;;22.38;14.43;;;0.40;99.90;;;1.39;88.62;99266.97;5059638;28;20033;-80
2021/01/25 08:17:29;;;;;;;25.15;14.18;;;0.40;99.90;;;1.43;88.20;99268.72;5062383;28;20036;-80
2021/01/25 08:20:18;;;;;;;27.73;13.35;;;0.40;99.90;;;1.46;88.08;99281.81;5034494;28;20029;-79
2021/01/25 08:23:03;;;;;;;26.55;15.82;;;0.50;99.90;;;1.45;87.59;99282.94;5034664;28;20071;-80
2021/01/25 08:25:31;;;;;;;28.52;14.30;;;0.50;99.90;;;1.46;87.59;99286.50;5052183;28;20029;-80
2021/01/25 08:28:18;;;;;;;28.02;15.02;;;0.50;99.90;;;1.48;87.66;99287.78;5052217;28;20029;-79
2021/01/25 08:30:48;;;;;;;28.83;14.68;;;0.60;99.90;;;1.48;87.50;99285.03;5052350;28;20060;-79
2021/01/25 08:33:33;;;;;;;27.63;15.55;;;0.50;99.90;;;1.47;87.91;99294.44;5034371;28;20032;-81
2021/01/25 08:36:06;;;;;;;33.50;16.42;;;0.50;99.90;;;1.50;87.50;99296.53;5053013;28;20033;-81
2021/01/25 08:38:41;;;;;;;29.75;15.38;;;0.60;99.90;;;1.52;87.20;99299.75;5034529;28;20036;-79
2021/01/25 08:41:28;;;;;;;44.20;15.93;;;0.60;99.90;;;1.49;87.19;99303.19;5035981;28;20029;-78
2021/01/25 08:44:01;;;;;;;28.25;15.52;;;0.60;99.90;;;1.52;87.32;99307.19;5035016;28;20036;-81
2021/01/25 08:46:38;;;;;;;26.65;15.85;;;0.60;99.90;;;1.55;87.36;99315.59;5037571;28;20025;-79
2021/01/25 08:49:35;;;;;;;31.95;16.38;;;0.60;99.90;;;1.62;86.72;99311.53;5056278;28;20195;-81
2021/01/25 08:52:23;;;;;;;32.70;14.77;;;0.60;99.90;;;1.58;86.42;99328.69;5057165;28;20059;-79
2021/01/25 08:54:49;;;;;;;27.60;15.13;;;0.60;99.90;;;1.65;86.76;99321.88;5056760;28;20025;-80
2021/01/25 08:57:31;;;;;;;27.73;16.23;;;0.70;99.90;;;1.73;86.11;99323.78;5053459;28;20398;-79
2021/01/25 09:00:12;;;;;;;25.23;15.18;;;0.70;99.90;;;1.78;85.66;99324.41;5038544;28;20025;-80
2021/01/25 09:02:38;;;;;;;26.77;14.98;;;0.80;99.90;;;1.83;85.40;99326.16;5056395;28;20032;-81
2021/01/25 09:05:06;;;;;;;30.55;15.52;;;0.80;99.90;;;1.86;85.50;99331.00;5055757;28;20036;-78
2021/01/25 09:07:31;;;;;;;25.05;13.98;;;0.90;99.90;;;1.90;85.44;99331.94;5058954;28;20171;-79
2021/01/25 09:09:57;;;;;;;29.50;15.52;;;0.90;99.90;;;1.97;85.13;99340.47;5069192;28;20009;-81
2021/01/25 09:12:26;;;;;;;28.55;15.63;;;1.00;99.90;;;1.97;85.23;99337.72;5056893;28;20475;-80
2021/01/25 09:14:52;;;;;;;31.52;15.50;;;1.00;99.90;;;2.05;85.31;99345.16;5057149;28;20112;-80
2021/01/25 09:17:21;;;;;;;24.35;14.13;;;1.10;99.90;;;2.09;84.72;99349.63;5038992;28;20460;-80
2021/01/25 09:19:47;;;;;;;27.20;14.70;;;1.10;99.90;;;2.14;84.99;99351.41;5039878;28;20451;-80
2021/01/25 09:22:14;;;;;;;32.97;15.25;;;1.20;99.90;;;2.20;84.83;99358.31;5038938;28;20505;-79
2021/01/25 09:24:41;;;;;;;25.83;14.15;;;1.20;99.90;;;2.22;84.97;99363.50;5039240;28;20370;-80
2021/01/25 09:27:09;;;;;;;23.48;14.23;;;1.20;99.90;;;2.33;83.85;99371.06;5039285;28;20033;-79
2021/01/25 09:29:36;;;;;;;24.98;14.00;;;1.30;99.90;;;2.38;83.93;99368.09;5055981;28;20029;-82
2021/01/25 09:32:05;;;;;;;25.73;14.60;;;1.30;99.90;;;2.42;83.57;99368.22;5055525;28;20120;-81
2021/01/25 09:34:31;;;;;;;28.70;15.15;;;1.40;99.90;;;2.46;83.12;99369.19;5037972;28;20151;-82
2021/01/25 09:36:57;;;;;;;28.60;15.18;;;1.40;99.90;;;2.50;82.49;99375.63;5057173;28;20049;-81
2021/01/25 09:39:23;;;;;;;29.52;15.57;;;1.50;99.90;;;2.54;82.23;99377.38;5041798;28;20029;-80
2021/01/25 09:41:49;;;;;;;24.27;15.82;;;1.50;99.90;;;2.56;81.85;99375.09;5039474;28;20079;-80
2021/01/25 09:44:17;;;;;;;23.60;15.45;;;1.60;99.90;;;2.68;82.14;99379.88;5055983;28;20036;-82
2021/01/25 09:46:44;;;;;;;26.67;15.40;;;1.70;99.90;;;2.88;81.07;99392.03;5055459;28;20036;-76
2021/01/25 09:49:11;;;;;;;27.58;16.80;;;1.80;99.90;;;3.04;80.33;99390.25;5051471;28;20017;-79
2021/01/25 09:51:40;;;;;;;24.95;14.55;;;2.00;99.90;;;3.32;79.60;99396.78;5037331;28;20036;-79
2021/01/25 09:54:06;;;;;;;30.67;16.15;;;2.20;99.90;;;3.56;79.08;99396.84;5036940;28;20056;-77
2021/01/25 09:56:32;;;;;;;28.45;14.68;;;2.30;99.90;;;3.65;77.72;99405.88;5055169;28;20497;-80
2021/01/25 09:58:57;;;;;;;26.67;15.38;;;2.50;99.90;;;3.54;76.65;99404.69;5054855;28;20040;-78
2021/01/25 10:01:24;;;;;;;26.98;16.00;;;2.50;99.90;;;3.40;76.49;99409.72;5055275;28;20031;-79
2021/01/25 10:03:50;;;;;;;26.23;15.98;;;2.40;99.90;;;3.32;77.45;99407.03;5036918;28;20029;-81
2021/01/25 10:06:16;;;;;;;27.88;16.08;;;2.40;99.90;;;3.30;77.46;99421.19;5036887;28;20017;-79
2021/01/25 10:08:45;;;;;;;22.83;14.45;;;2.30;99.90;;;3.30;78.33;99418.41;5039722;28;20055;-80
2021/01/25 10:11:11;;;;;;;21.15;14.02;;;2.30;99.90;;;3.38;78.38;99425.78;5039632;28;20036;-81
2021/01/25 10:13:37;;;;;;;26.60;15.98;;;2.40;99.90;;;3.37;78.42;99429.69;5054469;28;20025;-79
2021/01/25 10:16:03;;;;;;;25.63;15.65;;;2.40;99.90;;;3.44;78.20;99431.91;5036830;28;20393;-79
2021/01/25 10:18:29;;;;;;;22.83;13.75;;;2.40;99.90;;;3.64;78.71;99431.03;5055059;28;20025;-77
2021/01/25 10:20:55;;;;;;;26.20;15.60;;;2.50;99.90;;;3.80;78.17;99428.41;5053831;28;20047;-78
2021/01/25 10:23:21;;;;;;;22.77;15.52;;;2.70;99.90;;;4.05;78.72;99433.63;5037389;28;20029;-79
2021/01/25 10:25:47;;;;;;;21.63;15.43;;;2.90;99.90;;;4.28;77.90;99435.94;5057725;28;20099;-80
2021/01/25 10:28:13;;;;;;;26.17;15.93;;;3.10;99.90;;;4.47;76.52;99442.50;5054629;28;20110;-80
2021/01/25 10:30:40;;;;;;;26.38;14.82;;;3.30;99.90;;;4.64;76.51;99442.28;5036849;28;20025;-81
2021/01/25 10:33:06;;;;;;;28.65;16.20;;;3.40;99.90;;;4.69;75.25;99450.31;5036281;28;20425;-80